Time;durP1;ratioP1;P1;durP2;ratioP2;P2;SDS_P1;SDS_P2;PMS_P1;PMS_P2;Temp;Humidity;BMP_temperature;BMP_pressure;BME280_temperature;BME280_humidity;BME280_pressure;Samples;Min_cycle;Max_cycle;Signal;HPM_P1;HPM_P2
2022/05/22 00:02:16;;;;;;;7.30;6.90;;;;;;;21.26;59.21;101436.38;5036793;28;20048;-61
2022/05/22 00:04:42;;;;;;;7.07;6.78;;;;;;;21.29;57.34;101441.50;5033701;28;20034;-61
2022/05/22 00:07:07;;;;;;;7.50;7.15;;;;;;;21.32;57.49;101441.16;5033345;28;20021;-61
2022/05/22 00:09:34;;;;;;;6.82;6.53;;;;;;;21.34;57.78;101437.41;5033152;28;20021;-62
2022/05/22 00:11:59;;;;;;;7.30;7.00;;;;;;;21.36;56.54;101446.28;5033329;28;20388;-62
2022/05/22 00:14:28;;;;;;;7.18;6.88;;;;;;;21.35;56.59;101445.44;5033122;28;20033;-62
2022/05/22 00:16:54;;;;;;;7.63;7.25;;;;;;;21.38;55.94;101444.22;5033354;28;20076;-62
2022/05/22 00:19:22;;;;;;;6.90;6.60;;;;;;;21.42;55.89;101440.09;5033084;28;20029;-62
2022/05/22 00:21:48;;;;;;;7.45;7.00;;;;;;;21.42;55.96;101440.09;5032873;28;20076;-62
2022/05/22 00:24:16;;;;;;;7.05;6.75;;;;;;;21.41;55.25;101443.88;5033353;28;20488;-62
2022/05/22 00:26:41;;;;;;;7.00;6.70;;;;;;;21.44;54.87;101443.50;5032969;28;20076;-61
2022/05/22 00:29:07;;;;;;;6.80;6.50;;;;;;;21.44;55.35;101444.34;5031759;28;20408;-61
2022/05/22 00:31:33;;;;;;;7.75;7.35;;;;;;;21.46;54.62;101444.19;5032873;28;20025;-61
2022/05/22 00:33:58;;;;;;;6.90;6.60;;;;;;;21.47;55.30;101445.88;5035441;28;20030;-61
2022/05/22 00:36:24;;;;;;;7.45;7.05;;;;;;;21.47;54.40;101445.88;5032696;28;20021;-61
2022/05/22 00:38:49;;;;;;;7.13;6.82;;;;;;;21.48;55.31;101450.31;5032839;28;20358;-62
2022/05/22 00:41:15;;;;;;;7.20;6.90;;;;;;;21.48;55.08;101444.84;5032842;28;20048;-62
2022/05/22 00:43:47;;;;;;;7.00;6.70;;;;;;;21.48;55.06;101444.84;5032756;28;20464;-61
2022/05/22 00:46:15;;;;;;;7.40;7.10;;;;;;;21.47;54.95;101446.72;5033051;28;20515;-61
2022/05/22 00:48:43;;;;;;;7.30;7.00;;;;;;;21.48;55.20;101444.84;5032895;28;20026;-61
2022/05/22 00:51:19;;;;;;;7.38;7.03;;;;;;;21.46;54.22;101441.44;5032747;28;20053;-60
2022/05/22 00:53:52;;;;;;;7.25;6.95;;;;;;;21.47;54.35;101443.16;5033028;28;20034;-61
2022/05/22 00:56:23;;;;;;;7.35;7.05;;;;;;;21.49;55.20;101452.03;5031533;28;20560;-62
2022/05/22 00:58:53;;;;;;;7.47;7.07;;;;;;;21.50;54.59;101453.72;5032544;28;20033;-62
2022/05/22 01:01:18;;;;;;;7.63;7.32;;;;;;;21.47;54.28;101454.09;5032394;28;20018;-61
2022/05/22 01:03:44;;;;;;;7.18;6.88;;;;;;;21.50;54.26;101448.25;5032499;28;20036;-61
2022/05/22 01:06:16;;;;;;;7.13;6.82;;;;;;;21.48;53.81;101453.06;5031358;28;20026;-60
2022/05/22 01:08:42;;;;;;;7.30;7.00;;;;;;;21.50;53.85;101453.72;5037905;28;20600;-61
2022/05/22 01:11:12;;;;;;;7.80;7.50;;;;;;;21.46;54.06;101457.84;5032465;28;20125;-62
2022/05/22 01:13:44;;;;;;;7.30;7.00;;;;;;;21.49;54.49;101457.50;5032312;28;20029;-62
2022/05/22 01:16:10;;;;;;;7.25;6.95;;;;;;;21.50;54.19;101453.72;5032412;28;20065;-61
2022/05/22 01:18:45;;;;;;;7.25;6.95;;;;;;;21.49;54.74;101452.03;5032168;28;20048;-61
2022/05/22 01:21:21;;;;;;;7.28;6.97;;;;;;;21.50;53.93;101448.25;5032276;28;20120;-62
2022/05/22 01:23:46;;;;;;;7.88;7.47;;;;;;;21.48;54.53;101451.16;5032346;28;20473;-62
2022/05/22 01:26:12;;;;;;;6.90;6.60;;;;;;;21.50;54.32;101454.59;5032561;28;20057;-62
2022/05/22 01:28:37;;;;;;;7.47;7.10;;;;;;;21.49;53.82;101457.50;5032225;28;20025;-61
2022/05/22 01:31:03;;;;;;;6.90;6.60;;;;;;;21.48;54.07;101451.16;5032286;28;20025;-61
2022/05/22 01:33:29;;;;;;;6.80;6.50;;;;;;;21.50;54.46;101453.72;5032202;28;20041;-61
2022/05/22 01:35:54;;;;;;;7.10;6.70;;;;;;;21.50;53.77;101454.59;5032466;28;20029;-61
2022/05/22 01:38:19;;;;;;;6.97;6.68;;;;;;;21.50;54.47;101459.19;5032107;28;20025;-62
2022/05/22 01:40:46;;;;;;;6.90;6.60;;;;;;;21.49;54.01;101452.03;5032382;28;20476;-61
2022/05/22 01:43:11;;;;;;;6.53;6.32;;;;;;;21.48;53.80;101459.38;5032718;28;20025;-62
2022/05/22 01:45:36;;;;;;;6.90;6.60;;;;;;;21.51;54.13;101455.47;5034344;28;20040;-61
2022/05/22 01:48:02;;;;;;;7.20;6.80;;;;;;;21.50;54.16;101460.06;5033970;28;20111;-61
2022/05/22 01:50:29;;;;;;;7.10;6.80;;;;;;;21.50;53.68;101456.47;5031950;28;20396;-62
2022/05/22 01:52:55;;;;;;;7.13;6.82;;;;;;;21.50;53.98;101459.19;5030832;28;20033;-62
2022/05/22 01:55:20;;;;;;;7.35;7.05;;;;;;;21.50;54.14;101460.06;5032038;28;20013;-62
2022/05/22 01:57:46;;;;;;;7.05;6.75;;;;;;;21.50;53.89;101456.47;5030962;28;20473;-61
2022/05/22 02:00:16;;;;;;;7.20;6.90;;;;;;;21.51;53.79;101458.19;5032073;28;20053;-61
2022/05/22 02:02:42;;;;;;;7.28;6.95;;;;;;;21.51;54.51;101460.94;5032209;28;20461;-61
2022/05/22 02:05:09;;;;;;;7.35;6.97;;;;;;;21.50;54.34;101454.59;5031843;28;20034;-62
2022/05/22 02:10:19;;;;;;;7.47;7.10;;;;;;;21.49;54.50;101452.03;5035679;28;20064;-61
2022/05/22 02:12:44;;;;;;;7.45;7.15;;;;;;;21.50;53.89;101453.72;5035522;28;20025;-62
2022/05/22 02:15:11;;;;;;;7.10;6.80;;;;;;;21.51;54.23;101455.47;5034280;28;20025;-62
2022/05/22 02:17:36;;;;;;;7.10;6.80;;;;;;;21.49;54.03;101454.75;5035302;28;20104;-62
2022/05/22 02:20:01;;;;;;;6.72;6.43;;;;;;;21.49;53.61;101462.97;5035435;28;20105;-61
2022/05/22 02:22:26;;;;;;;7.07;6.78;;;;;;;21.50;53.69;101454.59;5034956;28;20476;-62
2022/05/22 02:24:53;;;;;;;7.00;6.70;;;;;;;21.49;54.12;101460.22;5035383;28;20030;-61
2022/05/22 02:27:19;;;;;;;7.45;7.15;;;;;;;21.51;54.31;101455.47;5035147;28;20025;-61
2022/05/22 02:29:44;;;;;;;6.93;6.63;;;;;;;21.50;54.01;101451.88;5035223;28;20029;-61
2022/05/22 02:32:09;;;;;;;7.22;6.88;;;;;;;21.50;54.32;101453.72;5035256;28;20055;-61
2022/05/22 02:34:35;;;;;;;7.63;7.22;;;;;;;21.50;53.97;101442.78;5039246;28;20400;-61
2022/05/22 02:37:00;;;;;;;7.20;6.90;;;;;;;21.48;53.38;101451.16;5034987;28;20104;-61
2022/05/22 02:39:26;;;;;;;7.00;6.70;;;;;;;21.50;53.94;101448.25;5034915;28;20021;-60
2022/05/22 02:41:52;;;;;;;7.30;7.00;;;;;;;21.53;54.21;101453.41;5035250;28;20420;-61
2022/05/22 02:44:17;;;;;;;7.00;6.70;;;;;;;21.52;53.99;101451.69;5034828;28;20022;-61
2022/05/22 02:46:43;;;;;;;7.10;6.80;;;;;;;21.49;54.00;101447.41;5034861;28;20033;-61
2022/05/22 02:49:08;;;;;;;6.95;6.65;;;;;;;21.49;53.50;101450.13;5034839;28;20489;-61
2022/05/22 02:51:34;;;;;;;7.43;6.95;;;;;;;21.51;53.52;101452.72;5034797;28;20025;-61
2022/05/22 02:53:59;;;;;;;7.03;6.72;;;;;;;21.53;54.21;101445.19;5034778;28;20029;-61
2022/05/22 02:56:26;;;;;;;6.70;6.40;;;;;;;21.51;54.18;101441.78;5033457;28;20072;-61
2022/05/22 02:58:51;;;;;;;7.18;6.88;;;;;;;21.50;53.51;101448.25;5034708;28;20032;-61
2022/05/22 03:01:17;;;;;;;6.88;6.57;;;;;;;21.53;53.41;101453.41;5034646;28;20025;-61
2022/05/22 03:03:42;;;;;;;7.75;7.45;;;;;;;21.50;53.58;101448.25;5034664;28;20037;-61
2022/05/22 03:08:52;;;;;;;6.88;6.57;;;;;;;21.48;54.26;101450.31;5034658;28;20082;-62
2022/05/22 03:11:17;;;;;;;7.70;7.30;;;;;;;21.50;55.10;101448.25;5034353;28;20112;-61
2022/05/22 03:13:42;;;;;;;7.00;6.70;;;;;;;21.51;54.46;101450.00;5034473;28;20392;-61
2022/05/22 03:16:07;;;;;;;7.35;7.00;;;;;;;21.50;54.79;101453.72;5034395;28;20021;-61
2022/05/22 03:18:33;;;;;;;7.40;7.10;;;;;;;21.48;53.79;101450.31;5036162;28;20025;-61
2022/05/22 03:20:58;;;;;;;7.45;7.15;;;;;;;21.51;54.09;101444.53;5040932;28;20050;-61
2022/05/22 03:23:24;;;;;;;7.35;7.05;;;;;;;21.49;54.00;101452.88;5033984;28;20108;-61
2022/05/22 03:25:49;;;;;;;7.00;6.70;;;;;;;21.49;54.61;101452.03;5034505;28;20025;-61
2022/05/22 03:28:16;;;;;;;7.00;6.70;;;;;;;21.50;54.30;101451.00;5034404;28;20486;-61
2022/05/22 03:30:42;;;;;;;7.20;6.90;;;;;;;21.49;54.19;101452.03;5034172;28;20068;-61
2022/05/22 03:33:07;;;;;;;7.05;6.72;;;;;;;21.48;54.64;101451.16;5034009;28;20041;-62
2022/05/22 03:35:33;;;;;;;7.00;6.70;;;;;;;21.47;54.75;101449.47;5033877;28;20063;-61
2022/05/22 03:37:59;;;;;;;7.30;7.00;;;;;;;21.49;54.79;101452.03;5034050;28;20492;-61
2022/05/22 03:40:24;;;;;;;6.95;6.65;;;;;;;21.49;54.55;101447.41;5033948;28;20025;-60
2022/05/22 03:42:50;;;;;;;7.00;6.70;;;;;;;21.48;53.98;101455.78;5033938;28;20022;-61
2022/05/22 03:45:15;;;;;;;7.20;6.82;;;;;;;21.49;53.80;101452.03;5033696;28;20033;-61
2022/05/22 03:47:40;;;;;;;6.50;6.30;;;;;;;21.48;53.76;101455.78;5033610;28;20021;-61
2022/05/22 03:50:11;;;;;;;7.28;6.97;;;;;;;21.49;54.55;101463.81;5034030;28;20033;-61
2022/05/22 03:52:40;;;;;;;7.03;6.63;;;;;;;21.48;54.68;101462.09;5033567;28;20384;-61
2022/05/22 03:55:08;;;;;;;7.15;6.80;;;;;;;21.48;54.81;101461.25;5033568;28;20026;-61
2022/05/22 03:57:34;;;;;;;7.30;7.00;;;;;;;21.48;54.12;101458.53;5033533;28;20056;-62
2022/05/22 04:00:03;;;;;;;7.10;6.80;;;;;;;21.48;54.78;101455.78;5033577;28;20053;-61
2022/05/22 04:02:28;;;;;;;0.38;0.28;;;;;;;21.80;53.77;101457.53;5033164;28;20030;-61
2022/05/22 04:04:54;;;;;;;0.35;0.35;;;;;;;22.19;53.28;101460.25;5033368;28;20044;-61
2022/05/22 04:07:19;;;;;;;0.50;0.40;;;;;;;22.43;52.87;101462.78;5033262;28;20057;-61
2022/05/22 04:09:45;;;;;;;0.75;0.50;;;;;;;22.67;51.82;101455.38;5033380;28;20030;-61
2022/05/22 04:12:11;;;;;;;0.98;0.47;;;;;;;22.86;52.75;101457.66;5033303;28;20112;-61
2022/05/22 04:14:37;;;;;;;0.52;0.40;;;;;;;22.99;52.43;101457.84;5032124;28;20527;-61
2022/05/22 04:17:03;;;;;;;1.00;0.40;;;;;;;23.13;52.50;101453.41;5031912;28;20025;-61
2022/05/22 04:19:28;;;;;;;0.40;0.38;;;;;;;23.29;53.01;101457.84;5032992;28;20029;-61
2022/05/22 04:21:53;;;;;;;0.85;0.70;;;;;;;23.40;52.78;101460.13;5033052;28;20045;-61
2022/05/22 04:27:06;;;;;;;0.70;0.53;;;;;;;23.64;52.52;101450.75;5033055;28;20036;-61
2022/05/22 04:29:33;;;;;;;0.40;0.40;;;;;;;23.74;52.49;101462.31;5031370;28;20722;-61
2022/05/22 04:31:59;;;;;;;0.57;0.30;;;;;;;23.81;53.29;101462.38;5033319;28;20103;-61
2022/05/22 04:34:24;;;;;;;1.92;0.52;;;;;;;23.90;53.15;101455.75;5038679;28;20029;-61
2022/05/22 04:36:50;;;;;;;1.10;0.32;;;;;;;23.97;52.71;101456.66;5034237;28;20025;-61
2022/05/22 04:39:15;;;;;;;0.40;0.40;;;;;;;24.01;54.01;101449.72;5032968;28;20021;-61
2022/05/22 04:41:40;;;;;;;0.30;0.30;;;;;;;24.09;52.93;101460.59;5032763;28;20477;-61
2022/05/22 04:44:06;;;;;;;0.93;0.50;;;;;;;24.16;53.94;101464.25;5032890;28;20052;-61
2022/05/22 04:46:32;;;;;;;0.20;0.20;;;;;;;24.19;53.93;101455.66;5032715;28;20025;-61
2022/05/22 04:48:57;;;;;;;0.30;0.30;;;;;;;24.22;53.65;101458.00;5032766;28;20159;-61
2022/05/22 04:51:22;;;;;;;0.77;0.30;;;;;;;23.60;54.54;101465.91;5032492;28;20025;-61
2022/05/22 04:53:48;;;;;;;0.40;0.40;;;;;;;23.14;53.42;101463.34;5032671;28;20071;-61
2022/05/22 04:56:13;;;;;;;0.82;0.40;;;;;;;22.89;51.95;101468.25;5032993;28;20029;-61
2022/05/22 04:58:38;;;;;;;0.95;0.40;;;;;;;22.67;51.26;101458.97;5032408;28;20064;-61
2022/05/22 05:01:06;;;;;;;0.50;0.50;;;;;;;22.51;50.69;101462.72;5032861;28;20079;-61
2022/05/22 05:03:31;;;;;;;0.40;0.30;;;;;;;22.41;49.67;101464.84;5032386;28;20029;-61
2022/05/22 05:05:57;;;;;;;0.40;0.40;;;;;;;22.26;49.29;101472.16;5032474;28;20025;-61
2022/05/22 05:08:24;;;;;;;0.45;0.38;;;;;;;22.23;48.21;101467.06;5032325;28;20521;-60
2022/05/22 05:10:50;;;;;;;0.65;0.30;;;;;;;22.17;47.86;101471.38;5032679;28;20456;-62
2022/05/22 05:13:15;;;;;;;0.30;0.30;;;;;;;22.11;48.51;101479.44;5032394;28;20017;-61
2022/05/22 05:15:40;;;;;;;0.52;0.52;;;;;;;22.10;48.74;101472.25;5032373;28;20022;-61
2022/05/22 05:18:06;;;;;;;1.00;0.40;;;;;;;22.11;47.75;101472.09;5032401;28;20017;-61
2022/05/22 05:20:31;;;;;;;1.48;0.47;;;;;;;21.93;47.49;101475.06;5032226;28;20064;-61
2022/05/22 05:22:56;;;;;;;1.27;0.60;;;;;;;22.04;48.50;101476.56;5034435;28;20046;-61
2022/05/22 05:25:22;;;;;;;0.57;0.38;;;;;;;21.92;47.44;101473.38;5034703;28;20034;-60
2022/05/22 05:27:47;;;;;;;0.60;0.30;;;;;;;21.83;48.44;101477.16;5032310;28;20515;-61
2022/05/22 05:30:13;;;;;;;0.68;0.50;;;;;;;21.93;49.01;101483.28;5032660;28;20132;-61
2022/05/22 05:32:38;;;;;;;1.02;0.70;;;;;;;22.04;48.80;101472.97;5032169;28;20064;-61
2022/05/22 05:35:09;;;;;;;0.82;0.35;;;;;;;22.04;48.72;101472.97;5032221;28;20495;-61
2022/05/22 05:37:35;;;;;;;0.77;0.40;;;;;;;21.93;47.56;101469.59;5032030;28;20563;-60
2022/05/22 05:40:00;;;;;;;0.75;0.60;;;;;;;21.98;48.37;101469.03;5032251;28;20083;-61
2022/05/22 05:42:31;;;;;;;0.28;0.28;;;;;;;21.89;48.61;101473.72;5033782;28;20033;-61
2022/05/22 05:44:56;;;;;;;0.35;0.35;;;;;;;21.97;47.61;101471.97;5036106;28;20067;-60
2022/05/22 05:47:21;;;;;;;0.43;0.40;;;;;;;21.98;47.77;101474.53;5036353;28;20030;-61
2022/05/22 05:49:47;;;;;;;0.52;0.47;;;;;;;21.95;47.98;101476.78;5034675;28;20382;-62
2022/05/22 05:52:12;;;;;;;0.30;0.30;;;;;;;21.99;46.67;101483.59;5035992;28;20028;-61
2022/05/22 05:54:37;;;;;;;0.68;0.50;;;;;;;22.00;48.06;101482.56;5035730;28;20544;-60
2022/05/22 05:57:03;;;;;;;0.73;0.40;;;;;;;22.02;47.99;101488.72;5036034;28;20017;-61
2022/05/22 05:59:28;;;;;;;1.00;0.30;;;;;;;21.91;48.58;101489.97;5035609;28;20030;-61
2022/05/22 06:01:53;;;;;;;0.40;0.40;;;;;;;21.97;46.74;101489.25;5036084;28;20032;-61
2022/05/22 06:04:20;;;;;;;1.23;0.50;;;;;;;22.00;47.80;101488.88;5034347;28;20358;-61
2022/05/22 06:06:45;;;;;;;0.93;0.35;;;;;;;21.96;47.86;101486.69;5035637;28;20374;-60
2022/05/22 06:09:10;;;;;;;0.80;0.20;;;;;;;21.92;47.93;101489.78;5036171;28;20101;-61
2022/05/22 06:11:36;;;;;;;0.85;0.47;;;;;;;21.93;47.58;101483.28;5035735;28;20526;-60
2022/05/22 06:14:01;;;;;;;0.35;0.30;;;;;;;21.99;48.24;101480.84;5039908;28;20021;-61
2022/05/22 06:16:27;;;;;;;0.50;0.38;;;;;;;21.89;47.85;101481.94;5035373;28;20410;-61
2022/05/22 06:18:52;;;;;;;0.85;0.28;;;;;;;22.01;48.38;101489.75;5035574;28;20021;-60
2022/05/22 06:21:20;;;;;;;0.40;0.28;;;;;;;21.95;48.23;101490.47;5035331;28;20424;-61
2022/05/22 06:23:45;;;;;;;0.30;0.30;;;;;;;21.95;47.77;101495.94;5035356;28;20026;-60
2022/05/22 06:26:13;;;;;;;0.38;0.38;;;;;;;21.99;48.58;101497.28;5035213;28;20036;-61
2022/05/22 06:28:39;;;;;;;0.52;0.30;;;;;;;22.01;48.47;101489.75;5035515;28;20028;-60
2022/05/22 06:31:06;;;;;;;0.60;0.40;;;;;;;21.99;48.87;101498.13;5035328;28;20108;-61
2022/05/22 06:33:32;;;;;;;0.43;0.43;;;;;;;22.06;48.43;101501.06;5035010;28;20021;-61
2022/05/22 06:35:57;;;;;;;0.20;0.20;;;;;;;21.92;48.65;101503.47;5035245;28;20097;-61
2022/05/22 06:41:08;;;;;;;0.30;0.30;;;;;;;21.91;47.78;101499.03;5035186;28;20120;-60
2022/05/22 06:43:34;;;;;;;0.65;0.32;;;;;;;21.95;47.99;101495.94;5033506;28;20311;-60
2022/05/22 06:46:00;;;;;;;0.70;0.40;;;;;;;21.91;48.61;101499.03;5035112;28;20108;-60
2022/05/22 06:48:25;;;;;;;0.30;0.30;;;;;;;21.93;49.09;101499.72;5034788;28;20029;-60
2022/05/22 06:50:51;;;;;;;0.63;0.35;;;;;;;21.84;49.18;101500.81;5034973;28;20049;-60
2022/05/22 06:53:16;;;;;;;0.47;0.20;;;;;;;22.02;49.32;101502.41;5034817;28;20521;-60
2022/05/22 06:55:41;;;;;;;0.32;0.20;;;;;;;22.03;48.59;101498.66;5037379;28;20018;-60
2022/05/22 06:58:08;;;;;;;0.63;0.30;;;;;;;21.93;48.75;101499.72;5034843;28;20362;-60
2022/05/22 07:00:33;;;;;;;0.85;0.40;;;;;;;22.01;49.40;101506.19;5034880;28;20028;-60
2022/05/22 07:02:58;;;;;;;0.38;0.30;;;;;;;21.95;49.40;101498.69;5034879;28;20108;-60
2022/05/22 07:05:24;;;;;;;0.45;0.45;;;;;;;21.92;48.66;101498.00;5034324;28;20029;-60
2022/05/22 07:07:49;;;;;;;0.38;0.38;;;;;;;21.84;49.23;101500.81;5034673;28;20068;-61
2022/05/22 07:10:15;;;;;;;0.43;0.35;;;;;;;21.96;50.13;101503.97;5034423;28;20037;-62
2022/05/22 07:12:40;;;;;;;0.30;0.30;;;;;;;21.91;48.84;101504.50;5034407;28;20035;-60
2022/05/22 07:15:07;;;;;;;0.82;0.50;;;;;;;21.80;48.90;101504.91;5033132;28;20472;-60
2022/05/22 07:17:33;;;;;;;0.30;0.30;;;;;;;21.90;49.78;101505.56;5034529;28;20038;-60
2022/05/22 07:19:59;;;;;;;0.32;0.32;;;;;;;21.93;47.93;101502.44;5034288;28;20032;-60
2022/05/22 07:22:24;;;;;;;0.60;0.35;;;;;;;21.88;48.78;101502.16;5033842;28;20053;-61
2022/05/22 07:24:50;;;;;;;0.57;0.25;;;;;;;21.95;48.76;101498.69;5034503;28;20033;-61
2022/05/22 07:27:16;;;;;;;0.43;0.35;;;;;;;21.89;49.00;101503.84;5034061;28;20064;-61
2022/05/22 07:29:42;;;;;;;0.55;0.38;;;;;;;21.89;49.74;101503.84;5034150;28;20017;-60
2022/05/22 07:32:08;;;;;;;0.95;0.32;;;;;;;21.89;49.20;101508.47;5034077;28;20128;-60
2022/05/22 07:34:34;;;;;;;0.60;0.40;;;;;;;21.78;49.54;101506.97;5033961;28;20029;-60
2022/05/22 07:37:02;;;;;;;0.10;0.10;;;;;;;21.80;49.04;101510.38;5034052;28;20045;-60
2022/05/22 07:39:28;;;;;;;0.30;0.30;;;;;;;21.89;49.13;101503.84;5033756;28;20052;-60
2022/05/22 07:41:54;;;;;;;0.47;0.30;;;;;;;21.91;48.39;101504.50;5033888;28;20461;-60
2022/05/22 07:44:19;;;;;;;0.32;0.30;;;;;;;21.95;48.23;101501.41;5033752;28;20484;-60
2022/05/22 07:46:45;;;;;;;0.25;0.25;;;;;;;21.88;48.88;101513.09;5033699;28;20069;-60
2022/05/22 07:50:16;;;;;;;0.43;0.20;;;;;;;21.82;48.84;101508.31;5033809;28;20025;-60
2022/05/22 07:51:56;;;;;;;0.80;0.30;;;;;;;21.95;49.52;101512.38;5033569;28;20040;-59
2022/05/22 07:54:21;;;;;;;0.30;0.30;;;;;;;21.91;49.47;101511.88;5033630;28;20029;-60
2022/05/22 07:56:47;;;;;;;0.50;0.50;;;;;;;21.96;47.90;101514.06;5033549;28;20029;-61
2022/05/22 07:59:12;;;;;;;0.50;0.43;;;;;;;21.83;49.13;101515.50;5033833;28;20105;-60
2022/05/22 08:01:37;;;;;;;0.20;0.20;;;;;;;21.93;50.38;101520.75;5033414;28;20468;-60
2022/05/22 08:04:03;;;;;;;0.20;0.20;;;;;;;21.95;48.10;101518.69;5033625;28;20025;-61
2022/05/22 08:06:28;;;;;;;0.30;0.20;;;;;;;21.79;48.80;101514.16;5032937;28;20100;-60
2022/05/22 08:08:53;;;;;;;0.40;0.32;;;;;;;21.88;49.75;101515.81;5033381;28;20061;-61
2022/05/22 08:11:19;;;;;;;0.35;0.15;;;;;;;21.85;50.05;101518.94;5033222;28;20033;-61
2022/05/22 08:13:44;;;;;;;0.75;0.22;;;;;;;21.78;49.03;101520.66;5033317;28;20465;-61
2022/05/22 08:16:09;;;;;;;0.82;0.30;;;;;;;21.93;49.01;101515.28;5033298;28;20022;-60
2022/05/22 08:18:34;;;;;;;0.30;0.30;;;;;;;21.85;49.36;101507.13;5033014;28;20033;-61
2022/05/22 08:21:00;;;;;;;1.27;0.30;;;;;;;21.88;50.68;101514.97;5034856;28;20389;-60
2022/05/22 08:23:25;;;;;;;1.35;0.50;;;;;;;21.95;49.56;101517.84;5033077;28;20026;-61
2022/05/22 08:25:51;;;;;;;0.77;0.30;;;;;;;21.93;49.51;101516.13;5032937;28;20083;-61
2022/05/22 08:28:16;;;;;;;0.75;0.35;;;;;;;21.91;48.74;101514.63;5032971;28;20029;-61
2022/05/22 08:30:43;;;;;;;0.55;0.30;;;;;;;21.87;50.76;101516.88;5033025;28;20030;-61
2022/05/22 08:33:08;;;;;;;0.57;0.20;;;;;;;21.85;49.25;101513.44;5032970;28;20053;-61
2022/05/22 08:35:36;;;;;;;1.38;0.10;;;;;;;21.86;48.99;101515.16;5032740;28;20452;-61
2022/05/22 08:38:02;;;;;;;0.40;0.20;;;;;;;21.91;48.90;101518.19;5032831;28;20101;-61
2022/05/22 08:40:38;;;;;;;0.20;0.20;;;;;;;21.90;48.35;101513.75;5032727;28;20032;-61
2022/05/22 08:43:16;;;;;;;0.25;0.25;;;;;;;21.95;50.54;101515.09;5032798;28;20034;-61
2022/05/22 08:45:44;;;;;;;0.45;0.30;;;;;;;21.97;49.83;101516.63;5032718;28;20029;-61
2022/05/22 08:48:10;;;;;;;0.20;0.20;;;;;;;21.82;48.98;101519.25;5032778;28;20072;-61
2022/05/22 08:50:36;;;;;;;0.20;0.20;;;;;;;21.90;49.51;101524.72;5032565;28;20026;-61
2022/05/22 08:53:25;;;;;;;0.63;0.30;;;;;;;21.90;48.76;101530.19;5032694;28;20350;-61
2022/05/22 08:58:58;;;;;;;0.25;0.25;;;;;;;21.98;49.05;101522.94;5032819;28;20076;-61
2022/05/22 09:01:54;;;;;;;0.52;0.30;;;;;;;21.93;50.39;101521.59;5032677;28;20056;-60
2022/05/22 09:04:33;;;;;;;1.45;0.63;;;;;;;21.98;50.06;101533.91;5032526;28;20021;-60
2022/05/22 09:07:17;;;;;;;1.40;0.40;;;;;;;21.87;50.08;101535.16;5036505;28;20072;-61
2022/05/22 09:09:45;;;;;;;0.57;0.40;;;;;;;21.88;49.79;101532.25;5032850;28;20029;-61
2022/05/22 09:12:17;;;;;;;0.57;0.30;;;;;;;21.95;48.42;101534.25;5032827;28;20646;-60
2022/05/22 09:15:11;;;;;;;0.47;0.45;;;;;;;21.90;50.10;101534.81;5032801;28;20071;-61
2022/05/22 09:17:46;;;;;;;0.30;0.30;;;;;;;22.02;50.36;101529.78;5034418;28;20480;-60
2022/05/22 09:20:29;;;;;;;0.60;0.30;;;;;;;21.97;48.65;101534.94;5036600;28;20469;-61
2022/05/22 09:23:32;;;;;;;0.38;0.38;;;;;;;21.82;49.21;101535.69;5036330;28;20049;-61
2022/05/22 09:26:10;;;;;;;1.73;0.40;;;;;;;21.78;50.14;101523.38;5036311;28;20202;-60
2022/05/22 09:28:38;;;;;;;0.30;0.10;;;;;;;21.90;49.39;101532.91;5036625;28;20063;-61
2022/05/22 09:31:19;;;;;;;0.50;0.30;;;;;;;21.84;49.85;101530.06;5036517;28;20026;-61
2022/05/22 09:33:53;;;;;;;0.30;0.30;;;;;;;21.87;48.64;101532.44;5036609;28;20036;-60
2022/05/22 09:36:36;;;;;;;0.40;0.40;;;;;;;21.89;48.90;101524.88;5036215;28;20029;-61
2022/05/22 09:39:33;;;;;;;0.43;0.30;;;;;;;21.86;50.43;101530.72;5036242;28;20025;-61
2022/05/22 09:42:36;;;;;;;0.30;0.30;;;;;;;21.89;49.44;101523.00;5013808;28;20060;-61
2022/05/22 09:45:19;;;;;;;0.75;0.20;;;;;;;21.74;50.07;101522.03;5014196;28;20096;-61
2022/05/22 09:47:59;;;;;;;0.38;0.32;;;;;;;21.87;51.15;101518.75;5013842;28;20077;-61
2022/05/22 09:50:28;;;;;;;0.40;0.20;;;;;;;21.88;49.58;101520.44;5013640;28;20100;-61
2022/05/22 09:53:05;;;;;;;0.70;0.55;;;;;;;21.81;49.77;101520.28;5013715;28;20042;-61
2022/05/22 09:55:51;;;;;;;0.22;0.22;;;;;;;21.89;49.39;101517.53;5013620;28;20026;-61
2022/05/22 09:58:28;;;;;;;0.55;0.20;;;;;;;21.73;48.98;101514.88;5017105;28;20041;-61
2022/05/22 10:01:02;;;;;;;0.50;0.30;;;;;;;21.95;50.22;101520.56;5017033;28;20037;-61
2022/05/22 10:04:04;;;;;;;0.30;0.30;;;;;;;21.88;48.84;101517.72;5013590;28;20029;-61
2022/05/22 10:06:36;;;;;;;0.30;0.22;;;;;;;21.78;48.80;101517.91;5013375;28;20030;-61
2022/05/22 10:09:33;;;;;;;0.43;0.25;;;;;;;21.86;49.44;101523.38;5013596;28;20034;-61
2022/05/22 10:12:26;;;;;;;1.55;0.30;;;;;;;21.78;49.31;101514.31;5013399;28;20042;-61
2022/05/22 10:15:21;;;;;;;0.30;0.30;;;;;;;21.71;50.20;101522.41;5013424;28;20135;-61
2022/05/22 10:17:49;;;;;;;0.43;0.35;;;;;;;21.79;49.15;101516.88;5026160;28;20037;-61
2022/05/22 10:20:21;;;;;;;0.70;0.20;;;;;;;21.90;48.94;101521.97;5035440;28;20068;-61
2022/05/22 10:23:10;;;;;;;0.77;0.28;;;;;;;21.91;48.91;101523.69;5035263;28;20048;-61
2022/05/22 10:26:05;;;;;;;0.30;0.30;;;;;;;21.82;49.59;101513.78;5035155;28;20029;-61
2022/05/22 10:28:37;;;;;;;;;;;;;;;21.88;50.07;101524.03;5035101;28;20120;-61
2022/05/22 10:31:09;;;;;;;0.65;0.30;;;;;;;21.83;49.34;101511.91;5035298;28;19909;-60
2022/05/22 10:34:22;;;;;;;0.73;0.30;;;;;;;21.92;49.27;101525.38;5035022;28;20026;-61
2022/05/22 10:36:53;;;;;;;0.28;0.20;;;;;;;21.91;50.25;101510.00;4993229;28;20038;-61
2022/05/22 10:39:20;;;;;;;0.52;0.20;;;;;;;21.87;49.15;101518.75;4993165;28;20042;-61
2022/05/22 10:44:50;;;;;;;0.43;0.20;;;;;;;21.93;49.90;101510.66;4993269;28;20033;-61
2022/05/22 10:47:32;;;;;;;0.28;0.28;;;;;;;21.92;49.92;101521.78;4993090;28;20049;-60
2022/05/22 10:50:15;;;;;;;0.88;0.28;;;;;;;21.80;49.13;101525.94;4999264;28;20026;-61
2022/05/22 10:52:40;;;;;;;0.30;0.30;;;;;;;21.83;49.60;101520.09;4992998;28;20117;-61
2022/05/22 10:55:38;;;;;;;0.20;0.20;;;;;;;21.76;49.21;101517.25;4993028;28;20488;-61
2022/05/22 10:58:15;;;;;;;0.60;0.30;;;;;;;21.87;49.12;101527.81;4993133;28;20027;-61
2022/05/22 11:00:54;;;;;;;0.38;0.22;;;;;;;21.85;49.05;101529.88;4992815;28;20042;-61
2022/05/22 11:03:26;;;;;;;0.63;0.28;;;;;;;21.81;49.16;101516.69;4992765;28;20033;-61
2022/05/22 11:05:52;;;;;;;0.85;0.20;;;;;;;21.80;48.57;101518.59;4992882;28;20371;-61
2022/05/22 11:08:28;;;;;;;0.32;0.25;;;;;;;21.90;49.00;101521.97;4992669;28;20477;-61
2022/05/22 11:10:55;;;;;;;0.88;0.40;;;;;;;21.76;49.20;101519.13;4992806;28;20062;-61
2022/05/22 11:13:23;;;;;;;0.55;0.50;;;;;;;21.82;48.87;101513.78;5029999;28;20502;-60
2022/05/22 11:15:49;;;;;;;0.30;0.30;;;;;;;21.84;49.73;101522.69;5034411;28;20380;-60
2022/05/22 11:18:23;;;;;;;0.20;0.20;;;;;;;21.84;49.76;101519.97;5034415;28;20527;-61
2022/05/22 11:20:54;;;;;;;0.73;0.40;;;;;;;21.84;49.19;101517.22;5034166;28;20022;-61
2022/05/22 11:23:28;;;;;;;0.50;0.50;;;;;;;21.90;48.78;101521.97;5034201;28;20100;-61
2022/05/22 11:26:30;;;;;;;1.42;0.43;;;;;;;21.89;50.28;101525.75;5034182;28;20025;-61
2022/05/22 11:29:22;;;;;;;0.45;0.45;;;;;;;21.91;49.96;101529.16;5034141;28;20021;-61
2022/05/22 11:31:59;;;;;;;0.20;0.20;;;;;;;21.93;49.92;101532.56;5034102;28;20557;-61
2022/05/22 11:34:30;;;;;;;0.40;0.30;;;;;;;21.86;48.56;101530.72;5033989;28;20052;-61
2022/05/22 11:37:45;;;;;;;1.33;0.35;;;;;;;21.82;50.11;101535.69;5044401;28;20037;-61
2022/05/22 11:40:33;;;;;;;0.32;0.30;;;;;;;21.96;50.19;101534.09;5010807;28;20037;-61
2022/05/22 11:43:24;;;;;;;0.30;0.20;;;;;;;21.89;49.63;101531.22;5011669;28;20380;-60
2022/05/22 11:46:00;;;;;;;0.38;0.32;;;;;;;21.84;51.24;101530.91;5011634;28;20029;-62
2022/05/22 11:48:58;;;;;;;0.32;0.32;;;;;;;21.89;49.47;101541.31;5011491;28;20128;-61
2022/05/22 11:51:43;;;;;;;0.40;0.32;;;;;;;21.80;49.94;101537.75;5011393;28;20065;-62
2022/05/22 11:54:38;;;;;;;0.30;0.30;;;;;;;21.81;49.03;101525.75;5011569;28;20030;-61
2022/05/22 11:57:15;;;;;;;;;;;;;;;21.86;50.13;101531.56;5011900;28;20084;-61